sensor_id;sensor_type;location;lat;lon;timestamp;pressure;altitude;pressure_sealevel;temperature;humidity
9421;BME280;4749;51.398;5.466;2023-11-21T00:00:18;100962.72;;;7.94;100.00
9421;BME280;4749;51.398;5.466;2023-11-21T00:02:47;100960.09;;;7.94;100.00
9421;BME280;4749;51.398;5.466;2023-11-21T00:05:14;100958.38;;;7.96;100.00
9421;BME280;4749;51.398;5.466;2023-11-21T00:07:43;100958.41;;;7.99;100.00
9421;BME280;4749;51.398;5.466;2023-11-21T00:10:12;100961.03;;;7.99;100.00
9421;BME280;4749;51.398;5.466;2023-11-21T00:12:42;100959.31;;;7.99;100.00
9421;BME280;4749;51.398;5.466;2023-11-21T00:15:10;100958.47;;;8.00;100.00
9421;BME280;4749;51.398;5.466;2023-11-21T00:17:40;100964.59;;;8.02;100.00
9421;BME280;4749;51.398;5.466;2023-11-21T00:20:10;100963.69;;;8.00;100.00
9421;BME280;4749;51.398;5.466;2023-11-21T00:22:41;100968.06;;;8.01;100.00
9421;BME280;4749;51.398;5.466;2023-11-21T00:25:09;100966.25;;;7.99;100.00
9421;BME280;4749;51.398;5.466;2023-11-21T00:27:36;100974.16;;;8.00;100.00
9421;BME280;4749;51.398;5.466;2023-11-21T00:30:08;100974.09;;;7.97;100.00
9421;BME280;4749;51.398;5.466;2023-11-21T00:32:37;100976.69;;;7.96;100.00
9421;BME280;4749;51.398;5.466;2023-11-21T00:35:05;100972.31;;;7.93;100.00
9421;BME280;4749;51.398;5.466;2023-11-21T00:37:33;100969.59;;;7.88;100.00
9421;BME280;4749;51.398;5.466;2023-11-21T00:40:01;100969.56;;;7.84;100.00
9421;BME280;4749;51.398;5.466;2023-11-21T00:42:34;100972.06;;;7.79;100.00
9421;BME280;4749;51.398;5.466;2023-11-21T00:45:02;100971.16;;;7.76;100.00
9421;BME280;4749;51.398;5.466;2023-11-21T00:47:31;100972.84;;;7.72;100.00
9421;BME280;4749;51.398;5.466;2023-11-21T00:50:00;100971.91;;;7.67;100.00
9421;BME280;4749;51.398;5.466;2023-11-21T00:52:27;100968.31;;;7.63;100.00
9421;BME280;4749;51.398;5.466;2023-11-21T00:54:55;100975.25;;;7.58;100.00
9421;BME280;4749;51.398;5.466;2023-11-21T00:57:22;100976.03;;;7.54;100.00
9421;BME280;4749;51.398;5.466;2023-11-21T00:59:49;100975.09;;;7.49;100.00
9421;BME280;4749;51.398;5.466;2023-11-21T01:02:16;100977.59;;;7.45;100.00
9421;BME280;4749;51.398;5.466;2023-11-21T01:04:44;100983.59;;;7.39;100.00
9421;BME280;4749;51.398;5.466;2023-11-21T01:07:13;100991.38;;;7.34;100.00
9421;BME280;4749;51.398;5.466;2023-11-21T01:09:40;100985.16;;;7.28;100.00
9421;BME280;4749;51.398;5.466;2023-11-21T01:12:08;100984.13;;;7.20;100.00
9421;BME280;4749;51.398;5.466;2023-11-21T01:14:35;100983.13;;;7.13;100.00
9421;BME280;4749;51.398;5.466;2023-11-21T01:17:04;100997.00;;;7.08;100.00
9421;BME280;4749;51.398;5.466;2023-11-21T01:19:32;100993.38;;;7.01;100.00
9421;BME280;4749;51.398;5.466;2023-11-21T01:21:59;100995.88;;;6.96;100.00
9421;BME280;4749;51.398;5.466;2023-11-21T01:24:26;100992.31;;;6.91;100.00
9421;BME280;4749;51.398;5.466;2023-11-21T01:26:54;101000.91;;;6.87;100.00
9421;BME280;4749;51.398;5.466;2023-11-21T01:29:21;100993.84;;;6.82;100.00
9421;BME280;4749;51.398;5.466;2023-11-21T01:31:48;101002.44;;;6.76;100.00
9421;BME280;4749;51.398;5.466;2023-11-21T01:34:15;101008.50;;;6.73;100.00
9421;BME280;4749;51.398;5.466;2023-11-21T01:36:42;101004.91;;;6.68;100.00
9421;BME280;4749;51.398;5.466;2023-11-21T01:39:10;101010.91;;;6.64;100.00
9421;BME280;4749;51.398;5.466;2023-11-21T01:41:42;101018.66;;;6.61;100.00
9421;BME280;4749;51.398;5.466;2023-11-21T01:44:13;101022.94;;;6.56;100.00
9421;BME280;4749;51.398;5.466;2023-11-21T01:46:41;101013.28;;;6.54;100.00
9421;BME280;4749;51.398;5.466;2023-11-21T01:49:11;101021.09;;;6.52;100.00
9421;BME280;4749;51.398;5.466;2023-11-21T01:51:43;101026.31;;;6.52;100.00
9421;BME280;4749;51.398;5.466;2023-11-21T01:54:10;101024.56;;;6.53;100.00
9421;BME280;4749;51.398;5.466;2023-11-21T01:56:47;101025.53;;;6.56;100.00
9421;BME280;4749;51.398;5.466;2023-11-21T01:59:21;101018.69;;;6.63;100.00
9421;BME280;4749;51.398;5.466;2023-11-21T02:01:49;101017.97;;;6.68;100.00
9421;BME280;4749;51.398;5.466;2023-11-21T02:04:21;101019.00;;;6.76;100.00
9421;BME280;4749;51.398;5.466;2023-11-21T02:06:49;101022.63;;;6.83;100.00
9421;BME280;4749;51.398;5.466;2023-11-21T02:09:27;101027.97;;;6.89;100.00
9421;BME280;4749;51.398;5.466;2023-11-21T02:11:54;101031.63;;;6.97;100.00
9421;BME280;4749;51.398;5.466;2023-11-21T02:14:28;101040.44;;;7.02;100.00
9421;BME280;4749;51.398;5.466;2023-11-21T02:16:55;101039.69;;;7.08;100.00
9421;BME280;4749;51.398;5.466;2023-11-21T02:19:24;101050.25;;;7.14;100.00
9421;BME280;4749;51.398;5.466;2023-11-21T02:21:57;101055.63;;;7.20;100.00
9421;BME280;4749;51.398;5.466;2023-11-21T02:24:31;101056.56;;;7.24;100.00
9421;BME280;4749;51.398;5.466;2023-11-21T02:26:58;101050.50;;;7.26;100.00
9421;BME280;4749;51.398;5.466;2023-11-21T02:29:27;101057.53;;;7.30;100.00
9421;BME280;4749;51.398;5.466;2023-11-21T02:31:57;101059.38;;;7.33;100.00
9421;BME280;4749;51.398;5.466;2023-11-21T02:34:26;101057.66;;;7.37;100.00
9421;BME280;4749;51.398;5.466;2023-11-21T02:36:54;101062.94;;;7.38;100.00
9421;BME280;4749;51.398;5.466;2023-11-21T02:39:22;101070.78;;;7.40;100.00
9421;BME280;4749;51.398;5.466;2023-11-21T02:41:52;101069.97;;;7.41;100.00
9421;BME280;4749;51.398;5.466;2023-11-21T02:44:19;101074.34;;;7.42;100.00
9421;BME280;4749;51.398;5.466;2023-11-21T02:46:48;101065.66;;;7.43;100.00
9421;BME280;4749;51.398;5.466;2023-11-21T02:49:16;101068.28;;;7.44;100.00
9421;BME280;4749;51.398;5.466;2023-11-21T02:51:43;101077.00;;;7.45;100.00
9421;BME280;4749;51.398;5.466;2023-11-21T02:54:11;101070.91;;;7.46;100.00
9421;BME280;4749;51.398;5.466;2023-11-21T02:56:38;101074.41;;;7.46;100.00
9421;BME280;4749;51.398;5.466;2023-11-21T02:59:07;101074.38;;;7.43;100.00
9421;BME280;4749;51.398;5.466;2023-11-21T03:01:34;101068.25;;;7.43;100.00
9421;BME280;4749;51.398;5.466;2023-11-21T03:04:01;101075.25;;;7.44;100.00
9421;BME280;4749;51.398;5.466;2023-11-21T03:06:29;101070.03;;;7.44;100.00
9421;BME280;4749;51.398;5.466;2023-11-21T03:08:58;101063.03;;;7.43;100.00
9421;BME280;4749;51.398;5.466;2023-11-21T03:11:26;101070.03;;;7.44;100.00
9421;BME280;4749;51.398;5.466;2023-11-21T03:13:53;101073.53;;;7.46;100.00
9421;BME280;4749;51.398;5.466;2023-11-21T03:16:20;101077.91;;;7.47;100.00
9421;BME280;4749;51.398;5.466;2023-11-21T03:18:47;101076.19;;;7.47;100.00
9421;BME280;4749;51.398;5.466;2023-11-21T03:21:15;101084.03;;;7.47;100.00
9421;BME280;4749;51.398;5.466;2023-11-21T03:23:42;101085.75;;;7.47;100.00
9421;BME280;4749;51.398;5.466;2023-11-21T03:26:12;101084.88;;;7.46;100.00
9421;BME280;4749;51.398;5.466;2023-11-21T03:28:40;101088.44;;;7.48;100.00
9421;BME280;4749;51.398;5.466;2023-11-21T03:31:07;101087.50;;;7.46;100.00
9421;BME280;4749;51.398;5.466;2023-11-21T03:33:36;101090.13;;;7.48;100.00
9421;BME280;4749;51.398;5.466;2023-11-21T03:36:07;101090.13;;;7.46;100.00
9421;BME280;4749;51.398;5.466;2023-11-21T03:38:37;101101.53;;;7.48;100.00
9421;BME280;4749;51.398;5.466;2023-11-21T03:41:05;101093.63;;;7.47;100.00
9421;BME280;4749;51.398;5.466;2023-11-21T03:43:32;101094.53;;;7.49;100.00
9421;BME280;4749;51.398;5.466;2023-11-21T03:45:59;101099.81;;;7.50;100.00
9421;BME280;4749;51.398;5.466;2023-11-21T03:48:27;101091.94;;;7.49;100.00
9421;BME280;4749;51.398;5.466;2023-11-21T03:50:54;101104.97;;;7.47;100.00
9421;BME280;4749;51.398;5.466;2023-11-21T03:53:24;101097.94;;;7.45;100.00
9421;BME280;4749;51.398;5.466;2023-11-21T03:55:51;101095.31;;;7.45;100.00
9421;BME280;4749;51.398;5.466;2023-11-21T03:58:19;101099.66;;;7.43;100.00
9421;BME280;4749;51.398;5.466;2023-11-21T04:00:47;101096.13;;;7.41;100.00
9421;BME280;4749;51.398;5.466;2023-11-21T04:03:16;101105.75;;;7.42;100.00
9421;BME280;4749;51.398;5.466;2023-11-21T04:05:43;101103.03;;;7.39;100.00
9421;BME280;4749;51.398;5.466;2023-11-21T04:08:18;101102.13;;;7.37;100.00
9421;BME280;4749;51.398;5.466;2023-11-21T04:10:45;101113.47;;;7.37;100.00
9421;BME280;4749;51.398;5.466;2023-11-21T04:13:12;101122.19;;;7.36;100.00
9421;BME280;4749;51.398;5.466;2023-11-21T04:15:41;101121.31;;;7.37;100.00
9421;BME280;4749;51.398;5.466;2023-11-21T04:18:08;101123.06;;;7.37;100.00
9421;BME280;4749;51.398;5.466;2023-11-21T04:20:35;101127.44;;;7.38;100.00
9421;BME280;4749;51.398;5.466;2023-11-21T04:23:02;101126.59;;;7.39;100.00
9421;BME280;4749;51.398;5.466;2023-11-21T04:25:31;101131.91;;;7.42;100.00
9421;BME280;4749;51.398;5.466;2023-11-21T04:27:59;101136.25;;;7.41;100.00
9421;BME280;4749;51.398;5.466;2023-11-21T04:30:26;101143.25;;;7.42;100.00
9421;BME280;4749;51.398;5.466;2023-11-21T04:32:53;101147.56;;;7.40;100.00
9421;BME280;4749;51.398;5.466;2023-11-21T06:26:18;101262.56;;;7.76;100.00
9421;BME280;4749;51.398;5.466;2023-11-21T06:28:45;101260.00;;;7.79;100.00
9421;BME280;4749;51.398;5.466;2023-11-21T06:31:12;101260.03;;;7.81;100.00
9421;BME280;4749;51.398;5.466;2023-11-21T06:33:41;101261.84;;;7.83;100.00
9421;BME280;4749;51.398;5.466;2023-11-21T06:36:09;101262.75;;;7.85;100.00
9421;BME280;4749;51.398;5.466;2023-11-21T06:38:38;101273.25;;;7.87;100.00
9421;BME280;4749;51.398;5.466;2023-11-21T06:41:06;101273.28;;;7.88;100.00
9421;BME280;4749;51.398;5.466;2023-11-21T06:43:33;101273.28;;;7.90;100.00
9421;BME280;4749;51.398;5.466;2023-11-21T06:46:00;101268.13;;;7.92;100.00
9421;BME280;4749;51.398;5.466;2023-11-21T06:48:27;101272.50;;;7.93;100.00
9421;BME280;4749;51.398;5.466;2023-11-21T06:50:54;101271.66;;;7.94;100.00
9421;BME280;4749;51.398;5.466;2023-11-21T06:53:21;101269.06;;;7.95;100.00
9421;BME280;4749;51.398;5.466;2023-11-21T06:55:48;101285.69;;;7.99;100.00
9421;BME280;4749;51.398;5.466;2023-11-21T06:58:15;101276.13;;;7.99;100.00
9421;BME280;4749;51.398;5.466;2023-11-21T07:00:42;101284.88;;;8.01;100.00
9421;BME280;4749;51.398;5.466;2023-11-21T07:03:13;101284.88;;;8.01;100.00
9421;BME280;4749;51.398;5.466;2023-11-21T07:05:41;101290.19;;;8.04;100.00
9421;BME280;4749;51.398;5.466;2023-11-21T07:08:08;101298.91;;;8.05;100.00
9421;BME280;4749;51.398;5.466;2023-11-21T07:10:35;101296.28;;;8.05;100.00
9421;BME280;4749;51.398;5.466;2023-11-21T07:13:05;101300.72;;;8.07;100.00
9421;BME280;4749;51.398;5.466;2023-11-21T07:15:32;101309.50;;;8.09;100.00
9421;BME280;4749;51.398;5.466;2023-11-21T07:17:59;101314.75;;;8.11;100.00
9421;BME280;4749;51.398;5.466;2023-11-21T07:20:26;101316.53;;;8.12;100.00
9421;BME280;4749;51.398;5.466;2023-11-21T07:22:54;101324.44;;;8.15;100.00
9421;BME280;4749;51.398;5.466;2023-11-21T07:25:23;101326.25;;;8.17;100.00
9421;BME280;4749;51.398;5.466;2023-11-21T07:27:50;101336.81;;;8.22;100.00
9421;BME280;4749;51.398;5.466;2023-11-21T07:30:17;101337.75;;;8.26;100.00
9421;BME280;4749;51.398;5.466;2023-11-21T07:32:44;101345.69;;;8.30;100.00
9421;BME280;4749;51.398;5.466;2023-11-21T07:35:12;101344.03;;;8.34;100.00
9421;BME280;4749;51.398;5.466;2023-11-21T07:37:39;101351.09;;;8.36;100.00
9421;BME280;4749;51.398;5.466;2023-11-21T07:40:07;101353.78;;;8.39;100.00
9421;BME280;4749;51.398;5.466;2023-11-21T07:42:36;101354.72;;;8.43;100.00
9421;BME280;4749;51.398;5.466;2023-11-21T07:45:06;101363.50;;;8.45;100.00
9421;BME280;4749;51.398;5.466;2023-11-21T07:47:34;101368.78;;;8.48;100.00
9421;BME280;4749;51.398;5.466;2023-11-21T07:50:03;101369.78;;;8.53;100.00
9421;BME280;4749;51.398;5.466;2023-11-21T07:52:31;101373.31;;;8.55;100.00
9421;BME280;4749;51.398;5.466;2023-11-21T07:54:58;101368.13;;;8.58;100.00
9421;BME280;4749;51.398;5.466;2023-11-21T07:57:25;101379.53;;;8.62;100.00
9421;BME280;4749;51.398;5.466;2023-11-21T07:59:52;101382.22;;;8.65;100.00
9421;BME280;4749;51.398;5.466;2023-11-21T08:02:22;101387.56;;;8.69;100.00
9421;BME280;4749;51.398;5.466;2023-11-21T08:04:49;101394.59;;;8.72;100.00
9421;BME280;4749;51.398;5.466;2023-11-21T08:07:17;101385.00;;;8.74;100.00
9421;BME280;4749;51.398;5.466;2023-11-21T08:09:45;101392.00;;;8.73;100.00
9421;BME280;4749;51.398;5.466;2023-11-21T08:12:13;101393.81;;;8.76;100.00
9421;BME280;4749;51.398;5.466;2023-11-21T08:14:42;101391.22;;;8.79;100.00
9421;BME280;4749;51.398;5.466;2023-11-21T08:17:09;101395.69;;;8.83;100.00
9421;BME280;4749;51.398;5.466;2023-11-21T08:19:37;101402.72;;;8.86;100.00
9421;BME280;4749;51.398;5.466;2023-11-21T08:22:04;101398.38;;;8.88;100.00
9421;BME280;4749;51.398;5.466;2023-11-21T08:24:34;101395.88;;;8.92;100.00
9421;BME280;4749;51.398;5.466;2023-11-21T08:27:02;101393.31;;;8.97;100.00
9421;BME280;4749;51.398;5.466;2023-11-21T08:29:29;101389.91;;;9.02;100.00
9421;BME280;4749;51.398;5.466;2023-11-21T08:31:58;101398.69;;;9.05;100.00
9421;BME280;4749;51.398;5.466;2023-11-21T08:34:26;101409.19;;;9.06;100.00
9421;BME280;4749;51.398;5.466;2023-11-21T08:36:55;101411.91;;;9.09;100.00
9421;BME280;4749;51.398;5.466;2023-11-21T08:39:24;101415.50;;;9.16;100.00
9421;BME280;4749;51.398;5.466;2023-11-21T08:41:51;101423.63;;;9.31;100.00
9421;BME280;4749;51.398;5.466;2023-11-21T08:44:18;101427.38;;;9.45;100.00
9421;BME280;4749;51.398;5.466;2023-11-21T08:46:45;101427.53;;;9.56;100.00
9421;BME280;4749;51.398;5.466;2023-11-21T08:49:13;101433.81;;;9.66;100.00
9421;BME280;4749;51.398;5.466;2023-11-21T08:51:43;101425.13;;;9.68;100.00
9421;BME280;4749;51.398;5.466;2023-11-21T08:54:10;101426.00;;;9.69;100.00
9421;BME280;4749;51.398;5.466;2023-11-21T08:56:39;101433.91;;;9.72;100.00
9421;BME280;4749;51.398;5.466;2023-11-21T08:59:06;101433.06;;;9.74;100.00
9421;BME280;4749;51.398;5.466;2023-11-21T09:01:34;101433.19;;;9.80;100.00
9421;BME280;4749;51.398;5.466;2023-11-21T09:04:02;101441.16;;;9.85;100.00
9421;BME280;4749;51.398;5.466;2023-11-21T09:06:29;101443.78;;;9.86;100.00
9421;BME280;4749;51.398;5.466;2023-11-21T09:08:56;101447.28;;;9.85;100.00
9421;BME280;4749;51.398;5.466;2023-11-21T09:11:23;101447.28;;;9.85;100.00
9421;BME280;4749;51.398;5.466;2023-11-21T09:13:52;101455.22;;;9.90;100.00
9421;BME280;4749;51.398;5.466;2023-11-21T09:16:21;101448.25;;;9.92;100.00
9421;BME280;4749;51.398;5.466;2023-11-21T09:18:48;101452.69;;;9.96;100.00
9421;BME280;4749;51.398;5.466;2023-11-21T09:21:15;101450.06;;;9.98;100.00
9421;BME280;4749;51.398;5.466;2023-11-21T09:23:45;101457.09;;;10.00;100.00
9421;BME280;4749;51.398;5.466;2023-11-21T09:26:12;101455.41;;;10.01;100.00
9421;BME280;4749;51.398;5.466;2023-11-21T09:28:42;101458.91;;;10.01;100.00
9421;BME280;4749;51.398;5.466;2023-11-21T09:31:14;101464.97;;;10.00;100.00
9421;BME280;4749;51.398;5.466;2023-11-21T09:33:45;101467.63;;;10.00;100.00
9421;BME280;4749;51.398;5.466;2023-11-21T09:36:14;101468.56;;;10.04;100.00
9421;BME280;4749;51.398;5.466;2023-11-21T09:38:42;101473.94;;;10.11;100.00
9421;BME280;4749;51.398;5.466;2023-11-21T09:41:34;101483.69;;;10.20;100.00
9421;BME280;4749;51.398;5.466;2023-11-21T09:44:09;101496.91;;;10.25;100.00
9421;BME280;4749;51.398;5.466;2023-11-21T09:46:42;101489.97;;;10.27;100.00
9421;BME280;4749;51.398;5.466;2023-11-21T09:49:10;101502.25;;;10.29;100.00
9421;BME280;4749;51.398;5.466;2023-11-21T09:51:43;101494.34;;;10.28;100.00
9421;BME280;4749;51.398;5.466;2023-11-21T09:54:10;101502.22;;;10.28;100.00
9421;BME280;4749;51.398;5.466;2023-11-21T09:56:38;101509.28;;;10.33;100.00
9421;BME280;4749;51.398;5.466;2023-11-21T09:59:06;101503.28;;;10.40;100.00
9421;BME280;4749;51.398;5.466;2023-11-21T10:01:39;101509.53;;;10.50;100.00
9421;BME280;4749;51.398;5.466;2023-11-21T10:04:11;101516.59;;;10.53;100.00
9421;BME280;4749;51.398;5.466;2023-11-21T10:06:40;101513.03;;;10.51;100.00
9421;BME280;4749;51.398;5.466;2023-11-21T10:09:13;101524.38;;;10.45;100.00
9421;BME280;4749;51.398;5.466;2023-11-21T10:11:41;101519.94;;;10.41;100.00
9421;BME280;4749;51.398;5.466;2023-11-21T10:14:10;101534.88;;;10.43;100.00
9421;BME280;4749;51.398;5.466;2023-11-21T10:16:41;101534.13;;;10.52;100.00
9421;BME280;4749;51.398;5.466;2023-11-21T10:19:10;101533.41;;;10.65;100.00
9421;BME280;4749;51.398;5.466;2023-11-21T10:21:38;101530.97;;;10.81;100.00
9421;BME280;4749;51.398;5.466;2023-11-21T10:24:07;101539.09;;;10.97;100.00
9421;BME280;4749;51.398;5.466;2023-11-21T10:26:34;101530.47;;;11.11;100.00
9421;BME280;4749;51.398;5.466;2023-11-21T10:29:19;101535.00;;;11.22;100.00
9421;BME280;4749;51.398;5.466;2023-11-21T10:31:51;101532.44;;;11.28;100.00
9421;BME280;4749;51.398;5.466;2023-11-21T10:34:21;101535.09;;;11.32;100.00
9421;BME280;4749;51.398;5.466;2023-11-21T10:36:49;101534.25;;;11.36;100.00
9421;BME280;4749;51.398;5.466;2023-11-21T10:39:20;101540.41;;;11.36;100.00
9421;BME280;4749;51.398;5.466;2023-11-21T10:41:50;101537.69;;;11.30;100.00
9421;BME280;4749;51.398;5.466;2023-11-21T10:44:18;101526.28;;;11.28;100.00
9421;BME280;4749;51.398;5.466;2023-11-21T10:46:52;101530.75;;;11.37;100.00
9421;BME280;4749;51.398;5.466;2023-11-21T10:49:25;101529.09;;;11.45;100.00
9421;BME280;4749;51.398;5.466;2023-11-21T10:51:56;101533.50;;;11.50;100.00
9421;BME280;4749;51.398;5.466;2023-11-21T10:54:25;101542.28;;;11.51;100.00
9421;BME280;4749;51.398;5.466;2023-11-21T10:56:57;101540.59;;;11.54;100.00
9421;BME280;4749;51.398;5.466;2023-11-21T10:59:30;101535.41;;;11.61;100.00
9421;BME280;4749;51.398;5.466;2023-11-21T11:01:59;101542.53;;;11.74;100.00
9421;BME280;4749;51.398;5.466;2023-11-21T11:04:30;101546.13;;;11.82;100.00
9421;BME280;4749;51.398;5.466;2023-11-21T11:07:03;101560.19;;;11.82;100.00
9421;BME280;4749;51.398;5.466;2023-11-21T11:09:32;101550.53;;;11.81;100.00
9421;BME280;4749;51.398;5.466;2023-11-21T11:12:02;101558.44;;;11.83;100.00
9421;BME280;4749;51.398;5.466;2023-11-21T11:14:33;101554.09;;;11.87;100.00
9421;BME280;4749;51.398;5.466;2023-11-21T11:17:01;101552.34;;;11.87;100.00
9421;BME280;4749;51.398;5.466;2023-11-21T11:19:31;101550.59;;;11.88;100.00
9421;BME280;4749;51.398;5.466;2023-11-21T11:22:27;101555.06;;;11.98;100.00
9421;BME280;4749;51.398;5.466;2023-11-21T11:38:48;101582.25;;;11.94;100.00
9421;BME280;4749;51.398;5.466;2023-11-21T11:41:31;101581.31;;;11.86;100.00
9421;BME280;4749;51.398;5.466;2023-11-21T11:44:02;101588.19;;;11.74;100.00
9421;BME280;4749;51.398;5.466;2023-11-21T11:46:43;101588.09;;;11.65;100.00
9421;BME280;4749;51.398;5.466;2023-11-21T11:49:24;101592.41;;;11.59;100.00
9421;BME280;4749;51.398;5.466;2023-11-21T11:52:35;101581.88;;;11.60;100.00
9421;BME280;4749;51.398;5.466;2023-11-21T11:55:03;101573.25;;;11.75;100.00
9421;BME280;4749;51.398;5.466;2023-11-21T11:57:31;101584.94;;;12.00;100.00
9421;BME280;4749;51.398;5.466;2023-11-21T12:02:51;101596.69;;;12.38;100.00
9421;BME280;4749;51.398;5.466;2023-11-21T12:05:23;101608.03;;;12.28;100.00
9421;BME280;4749;51.398;5.466;2023-11-21T12:07:56;101607.97;;;12.19;100.00
9421;BME280;4749;51.398;5.466;2023-11-21T12:10:30;101619.34;;;12.18;100.00
9421;BME280;4749;51.398;5.466;2023-11-21T12:13:03;101619.34;;;12.15;100.00
9421;BME280;4749;51.398;5.466;2023-11-21T12:15:34;101623.63;;;12.04;100.00
9421;BME280;4749;51.398;5.466;2023-11-21T12:18:03;101618.31;;;11.96;100.00
9421;BME280;4749;51.398;5.466;2023-11-21T12:20:31;101627.09;;;11.98;100.00
9421;BME280;4749;51.398;5.466;2023-11-21T12:22:59;101626.28;;;12.02;100.00
9421;BME280;4749;51.398;5.466;2023-11-21T12:25:29;101619.25;;;12.06;100.00
9421;BME280;4749;51.398;5.466;2023-11-21T12:28:00;101635.06;;;12.03;100.00
9421;BME280;4749;51.398;5.466;2023-11-21T12:30:30;101633.22;;;11.94;100.00
9421;BME280;4749;51.398;5.466;2023-11-21T12:32:59;101634.03;;;11.87;100.00
9421;BME280;4749;51.398;5.466;2023-11-21T12:35:33;101642.81;;;11.86;100.00
9421;BME280;4749;51.398;5.466;2023-11-21T12:38:03;101641.88;;;11.84;100.00
9421;BME280;4749;51.398;5.466;2023-11-21T12:40:32;101648.00;;;11.81;100.00
9421;BME280;4749;51.398;5.466;2023-11-21T12:43:01;101641.81;;;11.78;100.00
9421;BME280;4749;51.398;5.466;2023-11-21T12:45:31;101648.00;;;11.80;100.00
9421;BME280;4749;51.398;5.466;2023-11-21T12:48:06;101647.09;;;11.79;100.00
9421;BME280;4749;51.398;5.466;2023-11-21T12:50:39;101644.44;;;11.79;100.00
9421;BME280;4749;51.398;5.466;2023-11-21T12:53:12;101649.78;;;11.84;100.00
9421;BME280;4749;51.398;5.466;2023-11-21T12:55:40;101650.72;;;11.89;100.00
9421;BME280;4749;51.398;5.466;2023-11-21T12:58:10;101651.66;;;11.94;100.00
9421;BME280;4749;51.398;5.466;2023-11-21T13:00:42;101647.22;;;11.92;100.00
9421;BME280;4749;51.398;5.466;2023-11-21T13:03:12;101647.22;;;11.90;100.00
9421;BME280;4749;51.398;5.466;2023-11-21T13:05:45;101650.72;;;11.89;100.00
9421;BME280;4749;51.398;5.466;2023-11-21T13:08:15;101657.69;;;11.84;100.00
9421;BME280;4749;51.398;5.466;2023-11-21T13:10:51;101660.25;;;11.79;100.00
9421;BME280;4749;51.398;5.466;2023-11-21T13:13:19;101655.81;;;11.75;100.00
9421;BME280;4749;51.398;5.466;2023-11-21T13:15:56;101663.69;;;11.72;100.00
9421;BME280;4749;51.398;5.466;2023-11-21T13:18:25;101663.66;;;11.69;100.00
9421;BME280;4749;51.398;5.466;2023-11-21T13:21:02;101663.59;;;11.63;100.00
9421;BME280;4749;51.398;5.466;2023-11-21T13:23:35;101667.00;;;11.56;100.00
9421;BME280;4749;51.398;5.466;2023-11-21T13:26:06;101676.59;;;11.51;100.00
9421;BME280;4749;51.398;5.466;2023-11-21T13:28:34;101673.94;;;11.48;100.00
9421;BME280;4749;51.398;5.466;2023-11-21T13:31:04;101673.91;;;11.45;100.00
9421;BME280;4749;51.398;5.466;2023-11-21T13:33:50;101680.06;;;11.45;100.00
9421;BME280;4749;51.398;5.466;2023-11-21T13:36:24;101671.31;;;11.48;100.00
9421;BME280;4749;51.398;5.466;2023-11-21T13:38:53;101680.09;;;11.51;100.00
9421;BME280;4749;51.398;5.466;2023-11-21T13:41:21;101687.09;;;11.48;100.00
9421;BME280;4749;51.398;5.466;2023-11-21T13:43:55;101693.25;;;11.47;100.00
9421;BME280;4749;51.398;5.466;2023-11-21T13:46:30;101689.84;;;11.57;100.00
9421;BME280;4749;51.398;5.466;2023-11-21T13:49:05;101695.28;;;11.72;100.00
9421;BME280;4749;51.398;5.466;2023-11-21T13:51:38;101694.63;;;11.89;100.00
9421;BME280;4749;51.398;5.466;2023-11-21T13:54:12;101700.91;;;12.00;100.00
9421;BME280;4749;51.398;5.466;2023-11-21T13:56:41;101699.19;;;12.03;100.00
9421;BME280;4749;51.398;5.466;2023-11-21T13:59:10;101718.44;;;11.98;100.00
9421;BME280;4749;51.398;5.466;2023-11-21T14:01:57;101716.53;;;11.84;100.00
9421;BME280;4749;51.398;5.466;2023-11-21T14:04:26;101712.88;;;11.75;100.00
9421;BME280;4749;51.398;5.466;2023-11-21T14:07:11;101725.94;;;11.66;100.00
9421;BME280;4749;51.398;5.466;2023-11-21T14:09:52;101719.69;;;11.57;100.00
9421;BME280;4749;51.398;5.466;2023-11-21T14:12:20;101724.06;;;11.54;100.00
9421;BME280;4749;51.398;5.466;2023-11-21T14:14:47;101726.69;;;11.55;100.00
9421;BME280;4749;51.398;5.466;2023-11-21T14:17:15;101740.75;;;11.56;100.00
9421;BME280;4749;51.398;5.466;2023-11-21T14:19:42;101739.88;;;11.55;100.00
9421;BME280;4749;51.398;5.466;2023-11-21T14:22:11;101749.44;;;11.50;100.00
9421;BME280;4749;51.398;5.466;2023-11-21T14:24:39;101745.91;;;11.47;100.00
9421;BME280;4749;51.398;5.466;2023-11-21T14:27:13;101753.72;;;11.41;100.00
9421;BME280;4749;51.398;5.466;2023-11-21T14:29:42;101753.69;;;11.39;100.00
9421;BME280;4749;51.398;5.466;2023-11-21T14:32:12;101755.47;;;11.42;100.00
9421;BME280;4749;51.398;5.466;2023-11-21T14:34:40;101759.84;;;11.41;100.00
9421;BME280;4749;51.398;5.466;2023-11-21T14:37:10;101758.06;;;11.37;100.00
9421;BME280;4749;51.398;5.466;2023-11-21T14:39:40;101761.50;;;11.35;100.00
9421;BME280;4749;51.398;5.466;2023-11-21T14:42:11;101760.63;;;11.34;100.00
9421;BME280;4749;51.398;5.466;2023-11-21T14:44:42;101758.88;;;11.35;100.00
9421;BME280;4749;51.398;5.466;2023-11-21T14:47:09;101766.81;;;11.36;100.00
9421;BME280;4749;51.398;5.466;2023-11-21T14:49:44;101772.97;;;11.37;100.00
9421;BME280;4749;51.398;5.466;2023-11-21T14:52:21;101783.53;;;11.40;100.00
9421;BME280;4749;51.398;5.466;2023-11-21T14:55:04;101772.22;;;11.44;100.00
9421;BME280;4749;51.398;5.466;2023-11-21T14:57:50;101787.16;;;11.48;100.00
9421;BME280;4749;51.398;5.466;2023-11-21T15:00:19;101789.84;;;11.51;100.00
9421;BME280;4749;51.398;5.466;2023-11-21T15:03:05;101795.97;;;11.51;100.00
9421;BME280;4749;51.398;5.466;2023-11-21T15:05:34;101801.22;;;11.50;100.00
9421;BME280;4749;51.398;5.466;2023-11-21T15:08:02;101815.25;;;11.46;100.00
9421;BME280;4749;51.398;5.466;2023-11-21T15:10:48;101819.53;;;11.41;100.00
9421;BME280;4749;51.398;5.466;2023-11-21T15:13:21;101827.41;;;11.38;100.00
9421;BME280;4749;51.398;5.466;2023-11-21T15:15:52;101827.38;;;11.36;100.00
9421;BME280;4749;51.398;5.466;2023-11-21T15:18:35;101833.44;;;11.31;100.00
9421;BME280;4749;51.398;5.466;2023-11-21T15:21:03;101833.44;;;11.31;100.00
9421;BME280;4749;51.398;5.466;2023-11-21T15:23:30;101836.03;;;11.29;100.00
9421;BME280;4749;51.398;5.466;2023-11-21T15:26:01;101834.22;;;11.25;100.00
9421;BME280;4749;51.398;5.466;2023-11-21T15:28:30;101847.38;;;11.25;100.00